Danbury, CT

8:11 PM EST on February 09, 2016 (GMT -0500)
Aunt Hack B | | Change Station
CLOSE
Current Station
Personal Weather Station
Location: Danbury, CT
Elevation: 751 ft
Nearby Weather Stations

Elev 751 ft 41.40 °N, 73.52 °W | Updated 14 minutes ago

Overcast
Overcast
27.7 °F
Feels Like 28 °F
N
0.0
Wind Variable Wind from North

Today
High -- | Low -- °F
--% Chance of Precip.
Yesterday
High -- | Low -- °F
Precip. -- in
Pressure 29.62 in
Visibility 10.0 miles
Clouds Overcast 6000 ft
Windchill 28 °F
Dew Point 25 °F
Humidity 89%
Rainfall Not available.
Snow Depth Not available.
6:57 AM 5:19 PM
Waxing Crescent, 3% visible
METAR KDXR 100053Z 19003KT 10SM OVC060 M01/M07 A2961 RMK AO2 SLP030 T10111067
Pressure 29.62 in
Visibility 10.0 miles
Clouds Overcast 6000 ft
Windchill 28 °F
Dew Point 25 °F
Humidity 89%
Rainfall Not available.
Snow Depth Not available.
6:57 AM 5:19 PM
Waxing Crescent, 3% visible
METAR KDXR 100053Z 19003KT 10SM OVC060 M01/M07 A2961 RMK AO2 SLP030 T10111067

10-Day Weather Forecast

Almanac

Astronomy

Feb. 09, 2016 Rise Set
Actual Time
Civil Twilight
Nautical Twilight
Astronomical Twilight
Moon
Length of Visible Light
Length of Day
Tomorrow will be .
, % of the Moon is Illuminated

Today's Extremes

State Highs State Lows

Community

WunderPhotos

Upload Photos

1,891,752 photos uploaded!

WunderBlog® & News

Nearby

Air Quality

  Air Quality AQ Index Pollutant
Not available.

Snow Depth

Station Depth Elevation

Earthquake Activity

City Distance Mag. Time & Date
Minimum magnitude displayed is 2.5.

Coastal Water Temperatures

Place Temperature

Stations

Nearby Weather Stations

Station Location Temp. Windchill Dew Point Humidity Wind Precip. Elev Updated Type
                   

Watches & Warnings

There are currently no watches in effect.